sensor_id;sensor_type;location;lat;lon;timestamp;P1;durP1;ratioP1;P2;durP2;ratioP2
44862;SDS011;30597;49.628;10.850;2023-02-01T00:01:23;2.00;;;1.80;;
44862;SDS011;30597;49.628;10.850;2023-02-01T00:03:48;2.00;;;1.70;;
44862;SDS011;30597;49.628;10.850;2023-02-01T00:06:14;2.27;;;1.83;;
44862;SDS011;30597;49.628;10.850;2023-02-01T00:08:40;1.80;;;1.70;;
44862;SDS011;30597;49.628;10.850;2023-02-01T00:11:06;1.50;;;1.37;;
44862;SDS011;30597;49.628;10.850;2023-02-01T00:13:34;2.40;;;2.20;;
44862;SDS011;30597;49.628;10.850;2023-02-01T00:16:22;2.00;;;1.63;;
44862;SDS011;30597;49.628;10.850;2023-02-01T00:18:50;1.70;;;1.50;;
44862;SDS011;30597;49.628;10.850;2023-02-01T00:21:18;3.67;;;1.80;;
44862;SDS011;30597;49.628;10.850;2023-02-01T00:23:45;1.50;;;1.23;;
44862;SDS011;30597;49.628;10.850;2023-02-01T00:26:16;1.63;;;1.43;;
44862;SDS011;30597;49.628;10.850;2023-02-01T00:29:04;2.37;;;1.60;;
44862;SDS011;30597;49.628;10.850;2023-02-01T00:31:31;2.10;;;1.80;;
44862;SDS011;30597;49.628;10.850;2023-02-01T00:33:56;2.17;;;1.67;;
44862;SDS011;30597;49.628;10.850;2023-02-01T00:36:22;1.73;;;1.63;;
44862;SDS011;30597;49.628;10.850;2023-02-01T00:38:48;1.50;;;1.40;;
44862;SDS011;30597;49.628;10.850;2023-02-01T00:41:15;2.03;;;1.83;;
44862;SDS011;30597;49.628;10.850;2023-02-01T00:43:43;2.37;;;1.77;;
44862;SDS011;30597;49.628;10.850;2023-02-01T00:46:09;2.23;;;1.17;;
44862;SDS011;30597;49.628;10.850;2023-02-01T00:48:36;1.40;;;1.30;;
44862;SDS011;30597;49.628;10.850;2023-02-01T00:51:03;1.60;;;1.50;;
44862;SDS011;30597;49.628;10.850;2023-02-01T00:53:31;2.07;;;1.70;;
44862;SDS011;30597;49.628;10.850;2023-02-01T00:55:57;1.57;;;1.43;;
44862;SDS011;30597;49.628;10.850;2023-02-01T00:58:23;1.60;;;1.50;;
44862;SDS011;30597;49.628;10.850;2023-02-01T01:01:00;1.87;;;1.70;;
44862;SDS011;30597;49.628;10.850;2023-02-01T01:03:33;2.00;;;1.73;;
44862;SDS011;30597;49.628;10.850;2023-02-01T01:06:02;1.70;;;1.47;;
44862;SDS011;30597;49.628;10.850;2023-02-01T01:08:30;1.77;;;1.67;;
44862;SDS011;30597;49.628;10.850;2023-02-01T01:10:56;1.47;;;1.37;;
44862;SDS011;30597;49.628;10.850;2023-02-01T01:13:21;1.57;;;1.30;;
44862;SDS011;30597;49.628;10.850;2023-02-01T01:15:47;2.50;;;1.77;;
44862;SDS011;30597;49.628;10.850;2023-02-01T01:18:13;2.10;;;1.53;;
44862;SDS011;30597;49.628;10.850;2023-02-01T01:20:39;2.20;;;1.53;;
44862;SDS011;30597;49.628;10.850;2023-02-01T01:23:06;1.50;;;1.40;;
44862;SDS011;30597;49.628;10.850;2023-02-01T01:25:36;1.87;;;1.77;;
44862;SDS011;30597;49.628;10.850;2023-02-01T01:28:02;1.67;;;1.40;;
44862;SDS011;30597;49.628;10.850;2023-02-01T01:30:28;1.87;;;1.60;;
44862;SDS011;30597;49.628;10.850;2023-02-01T01:32:53;2.30;;;1.87;;
44862;SDS011;30597;49.628;10.850;2023-02-01T01:35:19;1.80;;;1.70;;
44862;SDS011;30597;49.628;10.850;2023-02-01T01:37:44;1.83;;;1.50;;
44862;SDS011;30597;49.628;10.850;2023-02-01T01:40:10;1.63;;;1.33;;
44862;SDS011;30597;49.628;10.850;2023-02-01T01:42:37;1.70;;;1.33;;
44862;SDS011;30597;49.628;10.850;2023-02-01T01:45:04;1.83;;;1.60;;
44862;SDS011;30597;49.628;10.850;2023-02-01T01:47:34;1.37;;;1.27;;
44862;SDS011;30597;49.628;10.850;2023-02-01T01:50:05;1.60;;;1.50;;
44862;SDS011;30597;49.628;10.850;2023-02-01T01:52:33;1.70;;;1.60;;
44862;SDS011;30597;49.628;10.850;2023-02-01T01:55:00;1.80;;;1.60;;
44862;SDS011;30597;49.628;10.850;2023-02-01T01:59:56;1.57;;;1.43;;
44862;SDS011;30597;49.628;10.850;2023-02-01T02:02:30;1.73;;;1.60;;
44862;SDS011;30597;49.628;10.850;2023-02-01T02:04:55;1.50;;;1.40;;
44862;SDS011;30597;49.628;10.850;2023-02-01T02:07:23;1.17;;;1.07;;
44862;SDS011;30597;49.628;10.850;2023-02-01T02:09:52;1.73;;;1.63;;
44862;SDS011;30597;49.628;10.850;2023-02-01T02:12:18;1.20;;;1.10;;
44862;SDS011;30597;49.628;10.850;2023-02-01T02:14:44;1.57;;;1.47;;
44862;SDS011;30597;49.628;10.850;2023-02-01T02:34:27;1.47;;;1.30;;
44862;SDS011;30597;49.628;10.850;2023-02-01T02:37:04;1.43;;;1.33;;
44862;SDS011;30597;49.628;10.850;2023-02-01T02:39:59;1.77;;;1.20;;
44862;SDS011;30597;49.628;10.850;2023-02-01T02:42:50;1.63;;;1.53;;
44862;SDS011;30597;49.628;10.850;2023-02-01T02:46:00;1.30;;;1.20;;
44862;SDS011;30597;49.628;10.850;2023-02-01T02:49:02;1.60;;;1.30;;
44862;SDS011;30597;49.628;10.850;2023-02-01T02:51:45;2.10;;;1.90;;
44862;SDS011;30597;49.628;10.850;2023-02-01T02:54:40;1.37;;;1.27;;
44862;SDS011;30597;49.628;10.850;2023-02-01T02:57:17;1.40;;;1.20;;
44862;SDS011;30597;49.628;10.850;2023-02-01T03:00:06;1.60;;;1.23;;
44862;SDS011;30597;49.628;10.850;2023-02-01T03:02:53;1.67;;;1.30;;
44862;SDS011;30597;49.628;10.850;2023-02-01T03:05:40;1.40;;;1.30;;
44862;SDS011;30597;49.628;10.850;2023-02-01T03:08:12;1.53;;;1.43;;
44862;SDS011;30597;49.628;10.850;2023-02-01T03:21:10;1.20;;;1.10;;
44862;SDS011;30597;49.628;10.850;2023-02-01T03:23:40;1.20;;;1.03;;
44862;SDS011;30597;49.628;10.850;2023-02-01T03:26:09;1.30;;;1.20;;
44862;SDS011;30597;49.628;10.850;2023-02-01T03:28:39;1.03;;;0.93;;
44862;SDS011;30597;49.628;10.850;2023-02-01T03:31:09;1.10;;;1.03;;
44862;SDS011;30597;49.628;10.850;2023-02-01T03:33:35;1.10;;;0.80;;
44862;SDS011;30597;49.628;10.850;2023-02-01T03:44:16;1.20;;;1.10;;
44862;SDS011;30597;49.628;10.850;2023-02-01T03:46:51;1.60;;;1.30;;
44862;SDS011;30597;49.628;10.850;2023-02-01T03:49:27;1.30;;;1.20;;
44862;SDS011;30597;49.628;10.850;2023-02-01T03:51:59;1.30;;;1.17;;
44862;SDS011;30597;49.628;10.850;2023-02-01T03:54:26;1.00;;;1.00;;
44862;SDS011;30597;49.628;10.850;2023-02-01T03:56:54;1.30;;;1.20;;
44862;SDS011;30597;49.628;10.850;2023-02-01T03:59:21;1.30;;;1.20;;
44862;SDS011;30597;49.628;10.850;2023-02-01T04:01:47;1.50;;;1.40;;
44862;SDS011;30597;49.628;10.850;2023-02-01T04:04:12;1.20;;;1.10;;
44862;SDS011;30597;49.628;10.850;2023-02-01T04:06:45;1.43;;;1.20;;
44862;SDS011;30597;49.628;10.850;2023-02-01T04:09:11;1.27;;;1.00;;
44862;SDS011;30597;49.628;10.850;2023-02-01T04:11:37;1.20;;;1.10;;
44862;SDS011;30597;49.628;10.850;2023-02-01T04:14:03;1.17;;;0.90;;
44862;SDS011;30597;49.628;10.850;2023-02-01T04:16:29;2.10;;;0.90;;
44862;SDS011;30597;49.628;10.850;2023-02-01T04:18:56;1.37;;;1.27;;
44862;SDS011;30597;49.628;10.850;2023-02-01T04:21:22;1.33;;;1.23;;
44862;SDS011;30597;49.628;10.850;2023-02-01T04:23:48;1.77;;;1.67;;
44862;SDS011;30597;49.628;10.850;2023-02-01T04:26:13;1.17;;;1.07;;
44862;SDS011;30597;49.628;10.850;2023-02-01T04:28:39;1.20;;;1.10;;
44862;SDS011;30597;49.628;10.850;2023-02-01T04:31:05;1.53;;;1.37;;
44862;SDS011;30597;49.628;10.850;2023-02-01T04:33:30;1.47;;;1.37;;
44862;SDS011;30597;49.628;10.850;2023-02-01T04:35:56;1.50;;;1.40;;
44862;SDS011;30597;49.628;10.850;2023-02-01T04:38:22;1.40;;;1.03;;
44862;SDS011;30597;49.628;10.850;2023-02-01T04:40:47;1.20;;;1.10;;
44862;SDS011;30597;49.628;10.850;2023-02-01T04:43:13;1.20;;;1.10;;
44862;SDS011;30597;49.628;10.850;2023-02-01T04:45:39;1.30;;;1.17;;
44862;SDS011;30597;49.628;10.850;2023-02-01T04:48:05;1.53;;;1.40;;
44862;SDS011;30597;49.628;10.850;2023-02-01T04:50:30;1.07;;;0.90;;
44862;SDS011;30597;49.628;10.850;2023-02-01T04:52:56;1.20;;;1.10;;
44862;SDS011;30597;49.628;10.850;2023-02-01T04:55:21;1.10;;;1.00;;
44862;SDS011;30597;49.628;10.850;2023-02-01T04:57:47;1.47;;;1.37;;
44862;SDS011;30597;49.628;10.850;2023-02-01T05:00:13;1.40;;;1.30;;
44862;SDS011;30597;49.628;10.850;2023-02-01T05:02:38;1.10;;;1.00;;
44862;SDS011;30597;49.628;10.850;2023-02-01T05:05:04;1.10;;;1.00;;
44862;SDS011;30597;49.628;10.850;2023-02-01T05:07:30;1.10;;;1.00;;
44862;SDS011;30597;49.628;10.850;2023-02-01T05:09:55;1.00;;;0.90;;
44862;SDS011;30597;49.628;10.850;2023-02-01T05:12:21;0.90;;;0.80;;
44862;SDS011;30597;49.628;10.850;2023-02-01T05:15:05;1.23;;;1.13;;
44862;SDS011;30597;49.628;10.850;2023-02-01T05:17:31;1.30;;;1.20;;
44862;SDS011;30597;49.628;10.850;2023-02-01T05:19:57;1.30;;;1.00;;
44862;SDS011;30597;49.628;10.850;2023-02-01T05:22:22;1.40;;;1.10;;
44862;SDS011;30597;49.628;10.850;2023-02-01T05:24:48;1.20;;;1.10;;
44862;SDS011;30597;49.628;10.850;2023-02-01T05:27:13;1.30;;;0.90;;
44862;SDS011;30597;49.628;10.850;2023-02-01T05:29:39;1.07;;;0.97;;
44862;SDS011;30597;49.628;10.850;2023-02-01T05:32:04;1.13;;;0.93;;
44862;SDS011;30597;49.628;10.850;2023-02-01T05:34:30;1.43;;;0.80;;
44862;SDS011;30597;49.628;10.850;2023-02-01T05:36:55;2.20;;;1.40;;
44862;SDS011;30597;49.628;10.850;2023-02-01T05:39:21;0.80;;;0.80;;
44862;SDS011;30597;49.628;10.850;2023-02-01T05:41:46;1.00;;;0.70;;
44862;SDS011;30597;49.628;10.850;2023-02-01T05:44:12;1.20;;;1.00;;
44862;SDS011;30597;49.628;10.850;2023-02-01T05:46:37;1.10;;;0.93;;
44862;SDS011;30597;49.628;10.850;2023-02-01T05:49:03;1.60;;;1.10;;
44862;SDS011;30597;49.628;10.850;2023-02-01T05:51:29;1.20;;;1.10;;
44862;SDS011;30597;49.628;10.850;2023-02-01T05:53:55;1.00;;;0.90;;
44862;SDS011;30597;49.628;10.850;2023-02-01T05:56:21;1.30;;;1.07;;
44862;SDS011;30597;49.628;10.850;2023-02-01T05:58:46;1.30;;;0.90;;
44862;SDS011;30597;49.628;10.850;2023-02-01T06:01:12;1.00;;;0.80;;
44862;SDS011;30597;49.628;10.850;2023-02-01T06:03:37;0.97;;;0.97;;
44862;SDS011;30597;49.628;10.850;2023-02-01T06:06:03;1.00;;;0.80;;
44862;SDS011;30597;49.628;10.850;2023-02-01T06:08:29;0.80;;;0.80;;
44862;SDS011;30597;49.628;10.850;2023-02-01T06:11:02;1.10;;;1.00;;
44862;SDS011;30597;49.628;10.850;2023-02-01T06:13:29;0.73;;;0.73;;
44862;SDS011;30597;49.628;10.850;2023-02-01T06:15:54;1.07;;;0.83;;
44862;SDS011;30597;49.628;10.850;2023-02-01T06:18:21;1.20;;;1.00;;
44862;SDS011;30597;49.628;10.850;2023-02-01T06:20:54;0.83;;;0.83;;
44862;SDS011;30597;49.628;10.850;2023-02-01T06:23:20;0.90;;;0.80;;
44862;SDS011;30597;49.628;10.850;2023-02-01T06:25:48;1.10;;;0.80;;
44862;SDS011;30597;49.628;10.850;2023-02-01T06:28:17;1.00;;;0.90;;
44862;SDS011;30597;49.628;10.850;2023-02-01T06:30:43;0.87;;;0.70;;
44862;SDS011;30597;49.628;10.850;2023-02-01T06:33:11;1.07;;;0.80;;
44862;SDS011;30597;49.628;10.850;2023-02-01T06:35:40;1.20;;;1.10;;
44862;SDS011;30597;49.628;10.850;2023-02-01T06:38:09;0.80;;;0.70;;
44862;SDS011;30597;49.628;10.850;2023-02-01T06:40:36;1.00;;;0.90;;
44862;SDS011;30597;49.628;10.850;2023-02-01T06:43:02;1.10;;;1.00;;
44862;SDS011;30597;49.628;10.850;2023-02-01T06:45:27;1.60;;;1.30;;
44862;SDS011;30597;49.628;10.850;2023-02-01T06:47:53;1.53;;;1.13;;
44862;SDS011;30597;49.628;10.850;2023-02-01T06:50:18;1.43;;;1.10;;
44862;SDS011;30597;49.628;10.850;2023-02-01T06:52:44;1.73;;;1.37;;
44862;SDS011;30597;49.628;10.850;2023-02-01T06:55:09;1.40;;;1.10;;
44862;SDS011;30597;49.628;10.850;2023-02-01T06:57:35;1.30;;;1.17;;
44862;SDS011;30597;49.628;10.850;2023-02-01T07:00:01;1.30;;;1.20;;
44862;SDS011;30597;49.628;10.850;2023-02-01T07:02:30;3.37;;;1.07;;
44862;SDS011;30597;49.628;10.850;2023-02-01T07:04:56;1.40;;;1.13;;
44862;SDS011;30597;49.628;10.850;2023-02-01T07:07:21;1.33;;;1.20;;
44862;SDS011;30597;49.628;10.850;2023-02-01T07:09:48;1.60;;;1.33;;
44862;SDS011;30597;49.628;10.850;2023-02-01T07:12:14;1.13;;;1.03;;
44862;SDS011;30597;49.628;10.850;2023-02-01T07:14:40;2.10;;;1.47;;
44862;SDS011;30597;49.628;10.850;2023-02-01T07:17:05;1.40;;;1.30;;
44862;SDS011;30597;49.628;10.850;2023-02-01T07:19:31;1.50;;;1.40;;
44862;SDS011;30597;49.628;10.850;2023-02-01T07:21:56;1.67;;;1.57;;
44862;SDS011;30597;49.628;10.850;2023-02-01T07:24:22;1.50;;;1.20;;
44862;SDS011;30597;49.628;10.850;2023-02-01T07:26:47;1.40;;;1.30;;
44862;SDS011;30597;49.628;10.850;2023-02-01T07:29:15;1.40;;;1.30;;
44862;SDS011;30597;49.628;10.850;2023-02-01T07:31:42;1.90;;;1.50;;
44862;SDS011;30597;49.628;10.850;2023-02-01T07:34:07;1.57;;;1.47;;
44862;SDS011;30597;49.628;10.850;2023-02-01T07:36:33;1.60;;;1.50;;
44862;SDS011;30597;49.628;10.850;2023-02-01T07:38:59;1.87;;;1.73;;
44862;SDS011;30597;49.628;10.850;2023-02-01T07:41:25;2.83;;;2.00;;
44862;SDS011;30597;49.628;10.850;2023-02-01T07:43:53;1.50;;;1.40;;
44862;SDS011;30597;49.628;10.850;2023-02-01T07:46:20;2.70;;;1.67;;
44862;SDS011;30597;49.628;10.850;2023-02-01T07:48:46;2.00;;;1.90;;
44862;SDS011;30597;49.628;10.850;2023-02-01T07:51:13;1.77;;;1.67;;
44862;SDS011;30597;49.628;10.850;2023-02-01T07:53:40;2.00;;;1.80;;
44862;SDS011;30597;49.628;10.850;2023-02-01T07:56:13;2.10;;;1.90;;
44862;SDS011;30597;49.628;10.850;2023-02-01T07:58:40;2.50;;;2.20;;
44862;SDS011;30597;49.628;10.850;2023-02-01T08:01:11;2.50;;;2.30;;
44862;SDS011;30597;49.628;10.850;2023-02-01T08:03:49;2.70;;;2.50;;
44862;SDS011;30597;49.628;10.850;2023-02-01T08:06:19;2.77;;;2.40;;
44862;SDS011;30597;49.628;10.850;2023-02-01T08:08:46;2.60;;;2.30;;
44862;SDS011;30597;49.628;10.850;2023-02-01T08:11:13;2.53;;;2.03;;
44862;SDS011;30597;49.628;10.850;2023-02-01T08:13:39;3.53;;;3.23;;
44862;SDS011;30597;49.628;10.850;2023-02-01T08:16:05;2.77;;;2.43;;
44862;SDS011;30597;49.628;10.850;2023-02-01T08:18:33;2.80;;;2.60;;
44862;SDS011;30597;49.628;10.850;2023-02-01T08:21:03;3.43;;;2.60;;
44862;SDS011;30597;49.628;10.850;2023-02-01T08:23:31;2.90;;;2.67;;
44862;SDS011;30597;49.628;10.850;2023-02-01T08:26:08;3.30;;;3.00;;
44862;SDS011;30597;49.628;10.850;2023-02-01T08:28:40;3.27;;;2.97;;
44862;SDS011;30597;49.628;10.850;2023-02-01T08:31:08;3.00;;;2.80;;
44862;SDS011;30597;49.628;10.850;2023-02-01T08:33:36;4.07;;;3.67;;
44862;SDS011;30597;49.628;10.850;2023-02-01T08:36:03;3.33;;;2.93;;
44862;SDS011;30597;49.628;10.850;2023-02-01T08:38:29;3.17;;;2.83;;
44862;SDS011;30597;49.628;10.850;2023-02-01T08:40:55;3.40;;;3.10;;
44862;SDS011;30597;49.628;10.850;2023-02-01T08:43:21;3.40;;;2.90;;
44862;SDS011;30597;49.628;10.850;2023-02-01T08:45:47;3.70;;;2.80;;
44862;SDS011;30597;49.628;10.850;2023-02-01T08:48:13;3.40;;;3.03;;
44862;SDS011;30597;49.628;10.850;2023-02-01T08:50:38;3.27;;;2.97;;
44862;SDS011;30597;49.628;10.850;2023-02-01T08:53:04;3.73;;;2.90;;
44862;SDS011;30597;49.628;10.850;2023-02-01T08:55:29;3.60;;;3.07;;
44862;SDS011;30597;49.628;10.850;2023-02-01T08:57:55;2.77;;;2.53;;
44862;SDS011;30597;49.628;10.850;2023-02-01T09:00:21;3.80;;;3.40;;
44862;SDS011;30597;49.628;10.850;2023-02-01T09:02:46;3.50;;;3.10;;
44862;SDS011;30597;49.628;10.850;2023-02-01T09:05:12;3.83;;;2.80;;
44862;SDS011;30597;49.628;10.850;2023-02-01T09:07:39;3.77;;;2.97;;
44862;SDS011;30597;49.628;10.850;2023-02-01T09:10:05;3.40;;;3.10;;
44862;SDS011;30597;49.628;10.850;2023-02-01T09:12:32;3.27;;;2.90;;
44862;SDS011;30597;49.628;10.850;2023-02-01T09:14:58;4.00;;;3.20;;
44862;SDS011;30597;49.628;10.850;2023-02-01T09:17:28;3.40;;;3.10;;
44862;SDS011;30597;49.628;10.850;2023-02-01T09:19:54;3.33;;;3.03;;
44862;SDS011;30597;49.628;10.850;2023-02-01T09:22:20;3.20;;;2.90;;
44862;SDS011;30597;49.628;10.850;2023-02-01T09:24:45;3.20;;;2.90;;
44862;SDS011;30597;49.628;10.850;2023-02-01T09:27:11;3.17;;;2.87;;
44862;SDS011;30597;49.628;10.850;2023-02-01T09:29:37;4.10;;;2.80;;
44862;SDS011;30597;49.628;10.850;2023-02-01T09:32:02;3.63;;;3.10;;
44862;SDS011;30597;49.628;10.850;2023-02-01T09:34:28;3.77;;;3.10;;
44862;SDS011;30597;49.628;10.850;2023-02-01T09:36:54;3.43;;;3.13;;
44862;SDS011;30597;49.628;10.850;2023-02-01T09:39:19;3.70;;;3.17;;
44862;SDS011;30597;49.628;10.850;2023-02-01T09:41:54;3.10;;;2.53;;
44862;SDS011;30597;49.628;10.850;2023-02-01T09:47:19;3.10;;;2.80;;
44862;SDS011;30597;49.628;10.850;2023-02-01T09:49:51;3.30;;;2.70;;
44862;SDS011;30597;49.628;10.850;2023-02-01T09:52:29;3.10;;;2.60;;
44862;SDS011;30597;49.628;10.850;2023-02-01T09:55:01;4.03;;;2.97;;
44862;SDS011;30597;49.628;10.850;2023-02-01T09:57:39;4.90;;;3.10;;
44862;SDS011;30597;49.628;10.850;2023-02-01T10:00:16;2.73;;;2.53;;
44862;SDS011;30597;49.628;10.850;2023-02-01T10:02:50;3.00;;;2.77;;
44862;SDS011;30597;49.628;10.850;2023-02-01T10:05:18;2.87;;;2.57;;
44862;SDS011;30597;49.628;10.850;2023-02-01T10:08:05;3.33;;;2.67;;
44862;SDS011;30597;49.628;10.850;2023-02-01T10:15:48;3.20;;;2.90;;
44862;SDS011;30597;49.628;10.850;2023-02-01T10:21:31;3.00;;;2.30;;
44862;SDS011;30597;49.628;10.850;2023-02-01T10:27:09;3.40;;;3.10;;
44862;SDS011;30597;49.628;10.850;2023-02-01T10:29:47;2.47;;;2.27;;
44862;SDS011;30597;49.628;10.850;2023-02-01T10:32:20;2.77;;;2.37;;
44862;SDS011;30597;49.628;10.850;2023-02-01T10:34:49;2.50;;;2.30;;
44862;SDS011;30597;49.628;10.850;2023-02-01T10:37:32;2.43;;;2.20;;
44862;SDS011;30597;49.628;10.850;2023-02-01T10:40:00;3.00;;;2.70;;
44862;SDS011;30597;49.628;10.850;2023-02-01T10:42:52;3.10;;;2.20;;
44862;SDS011;30597;49.628;10.850;2023-02-01T10:45:22;2.77;;;2.53;;
44862;SDS011;30597;49.628;10.850;2023-02-01T10:47:52;3.50;;;2.63;;
44862;SDS011;30597;49.628;10.850;2023-02-01T10:53:15;3.70;;;2.87;;
44862;SDS011;30597;49.628;10.850;2023-02-01T10:58:18;3.77;;;2.80;;
44862;SDS011;30597;49.628;10.850;2023-02-01T11:01:04;3.40;;;2.80;;
44862;SDS011;30597;49.628;10.850;2023-02-01T11:03:39;3.07;;;2.50;;
44862;SDS011;30597;49.628;10.850;2023-02-01T11:06:38;4.90;;;2.60;;
44862;SDS011;30597;49.628;10.850;2023-02-01T11:16:47;2.70;;;2.20;;
44862;SDS011;30597;49.628;10.850;2023-02-01T11:19:15;2.13;;;1.93;;
44862;SDS011;30597;49.628;10.850;2023-02-01T11:21:42;2.83;;;2.30;;
44862;SDS011;30597;49.628;10.850;2023-02-01T11:24:33;2.93;;;2.63;;
44862;SDS011;30597;49.628;10.850;2023-02-01T11:27:00;2.30;;;2.10;;
44862;SDS011;30597;49.628;10.850;2023-02-01T11:29:29;2.90;;;2.17;;
44862;SDS011;30597;49.628;10.850;2023-02-01T11:32:02;3.13;;;2.20;;
44862;SDS011;30597;49.628;10.850;2023-02-01T11:34:36;6.30;;;2.63;;
44862;SDS011;30597;49.628;10.850;2023-02-01T11:37:04;3.37;;;2.67;;
44862;SDS011;30597;49.628;10.850;2023-02-01T11:39:56;3.50;;;2.47;;
44862;SDS011;30597;49.628;10.850;2023-02-01T11:42:24;3.40;;;2.77;;
44862;SDS011;30597;49.628;10.850;2023-02-01T11:44:51;3.17;;;2.53;;
44862;SDS011;30597;49.628;10.850;2023-02-01T11:47:59;2.73;;;2.20;;
44862;SDS011;30597;49.628;10.850;2023-02-01T11:50:37;3.80;;;3.07;;
44862;SDS011;30597;49.628;10.850;2023-02-01T11:56:03;3.40;;;3.10;;
44862;SDS011;30597;49.628;10.850;2023-02-01T12:07:39;3.40;;;2.50;;
44862;SDS011;30597;49.628;10.850;2023-02-01T12:24:01;4.10;;;3.10;;
44862;SDS011;30597;49.628;10.850;2023-02-01T12:29:26;3.03;;;2.60;;
44862;SDS011;30597;49.628;10.850;2023-02-01T12:32:25;3.07;;;2.60;;
44862;SDS011;30597;49.628;10.850;2023-02-01T12:44:12;3.33;;;2.97;;
44862;SDS011;30597;49.628;10.850;2023-02-01T12:46:43;4.30;;;3.20;;
44862;SDS011;30597;49.628;10.850;2023-02-01T12:49:23;4.70;;;2.93;;
44862;SDS011;30597;49.628;10.850;2023-02-01T12:52:04;3.40;;;3.00;;
44862;SDS011;30597;49.628;10.850;2023-02-01T12:54:37;3.53;;;2.97;;
44862;SDS011;30597;49.628;10.850;2023-02-01T12:57:11;3.60;;;3.10;;
44862;SDS011;30597;49.628;10.850;2023-02-01T12:59:46;3.83;;;3.27;;
44862;SDS011;30597;49.628;10.850;2023-02-01T13:02:51;4.50;;;3.40;;
44862;SDS011;30597;49.628;10.850;2023-02-01T13:05:17;4.90;;;3.30;;
44862;SDS011;30597;49.628;10.850;2023-02-01T13:07:50;4.73;;;3.40;;
44862;SDS011;30597;49.628;10.850;2023-02-01T13:10:29;3.10;;;2.50;;
44862;SDS011;30597;49.628;10.850;2023-02-01T13:13:11;4.90;;;3.20;;
44862;SDS011;30597;49.628;10.850;2023-02-01T13:15:46;3.87;;;3.27;;
44862;SDS011;30597;49.628;10.850;2023-02-01T13:18:20;2.73;;;2.50;;
44862;SDS011;30597;49.628;10.850;2023-02-01T13:20:49;4.77;;;3.00;;
44862;SDS011;30597;49.628;10.850;2023-02-01T13:23:36;3.97;;;3.40;;
44862;SDS011;30597;49.628;10.850;2023-02-01T13:26:04;7.30;;;3.50;;
44862;SDS011;30597;49.628;10.850;2023-02-01T13:28:40;3.07;;;2.77;;
44862;SDS011;30597;49.628;10.850;2023-02-01T13:33:49;4.23;;;3.50;;
44862;SDS011;30597;49.628;10.850;2023-02-01T13:36:56;3.73;;;2.53;;
44862;SDS011;30597;49.628;10.850;2023-02-01T13:42:13;3.43;;;3.13;;
44862;SDS011;30597;49.628;10.850;2023-02-01T13:44:44;3.30;;;2.83;;
44862;SDS011;30597;49.628;10.850;2023-02-01T13:47:21;4.00;;;3.10;;
44862;SDS011;30597;49.628;10.850;2023-02-01T13:49:50;4.20;;;3.40;;
44862;SDS011;30597;49.628;10.850;2023-02-01T13:52:29;3.77;;;3.27;;
44862;SDS011;30597;49.628;10.850;2023-02-01T13:58:00;3.60;;;2.53;;
44862;SDS011;30597;49.628;10.850;2023-02-01T14:00:36;4.23;;;2.87;;
44862;SDS011;30597;49.628;10.850;2023-02-01T14:18:48;3.07;;;2.63;;
44862;SDS011;30597;49.628;10.850;2023-02-01T14:26:21;3.90;;;2.73;;
44862;SDS011;30597;49.628;10.850;2023-02-01T14:28:55;4.43;;;2.87;;
44862;SDS011;30597;49.628;10.850;2023-02-01T14:31:31;3.50;;;3.20;;
44862;SDS011;30597;49.628;10.850;2023-02-01T14:34:01;4.53;;;2.70;;
44862;SDS011;30597;49.628;10.850;2023-02-01T14:36:44;7.53;;;2.80;;
44862;SDS011;30597;49.628;10.850;2023-02-01T14:41:52;4.40;;;2.70;;
44862;SDS011;30597;49.628;10.850;2023-02-01T14:44:25;4.17;;;3.40;;
44862;SDS011;30597;49.628;10.850;2023-02-01T14:47:02;3.07;;;2.60;;
44862;SDS011;30597;49.628;10.850;2023-02-01T14:52:22;3.90;;;3.10;;
44862;SDS011;30597;49.628;10.850;2023-02-01T14:54:55;2.87;;;2.57;;
44862;SDS011;30597;49.628;10.850;2023-02-01T14:57:24;3.10;;;2.30;;
44862;SDS011;30597;49.628;10.850;2023-02-01T14:59:53;2.70;;;2.10;;
44862;SDS011;30597;49.628;10.850;2023-02-01T15:02:41;4.23;;;3.07;;
44862;SDS011;30597;49.628;10.850;2023-02-01T15:05:22;4.90;;;3.20;;
44862;SDS011;30597;49.628;10.850;2023-02-01T15:07:57;3.67;;;2.90;;
44862;SDS011;30597;49.628;10.850;2023-02-01T15:10:27;3.83;;;2.30;;
44862;SDS011;30597;49.628;10.850;2023-02-01T15:12:56;2.40;;;2.20;;
44862;SDS011;30597;49.628;10.850;2023-02-01T15:15:22;4.00;;;2.93;;
44862;SDS011;30597;49.628;10.850;2023-02-01T15:17:58;2.90;;;2.10;;
44862;SDS011;30597;49.628;10.850;2023-02-01T15:20:31;3.27;;;2.90;;
44862;SDS011;30597;49.628;10.850;2023-02-01T15:22:59;3.23;;;2.90;;
44862;SDS011;30597;49.628;10.850;2023-02-01T15:25:34;2.37;;;2.13;;
44862;SDS011;30597;49.628;10.850;2023-02-01T15:28:02;3.10;;;2.20;;
44862;SDS011;30597;49.628;10.850;2023-02-01T15:30:32;4.73;;;2.70;;
44862;SDS011;30597;49.628;10.850;2023-02-01T15:35:45;3.60;;;2.77;;
44862;SDS011;30597;49.628;10.850;2023-02-01T15:38:25;4.67;;;2.50;;
44862;SDS011;30597;49.628;10.850;2023-02-01T15:40:57;2.83;;;2.60;;
44862;SDS011;30597;49.628;10.850;2023-02-01T15:46:24;3.67;;;2.70;;
44862;SDS011;30597;49.628;10.850;2023-02-01T15:49:00;3.50;;;2.07;;
44862;SDS011;30597;49.628;10.850;2023-02-01T15:51:28;3.30;;;1.70;;
44862;SDS011;30597;49.628;10.850;2023-02-01T15:54:04;2.83;;;2.27;;
44862;SDS011;30597;49.628;10.850;2023-02-01T15:56:35;3.40;;;2.37;;
44862;SDS011;30597;49.628;10.850;2023-02-01T15:59:04;3.23;;;2.23;;
44862;SDS011;30597;49.628;10.850;2023-02-01T16:01:44;2.20;;;1.87;;
44862;SDS011;30597;49.628;10.850;2023-02-01T16:04:21;3.00;;;2.40;;
44862;SDS011;30597;49.628;10.850;2023-02-01T16:06:53;2.87;;;2.10;;
44862;SDS011;30597;49.628;10.850;2023-02-01T16:09:25;2.53;;;2.00;;
44862;SDS011;30597;49.628;10.850;2023-02-01T16:12:28;4.13;;;2.00;;
44862;SDS011;30597;49.628;10.850;2023-02-01T16:15:00;3.60;;;2.50;;
44862;SDS011;30597;49.628;10.850;2023-02-01T16:17:25;2.60;;;2.37;;
44862;SDS011;30597;49.628;10.850;2023-02-01T16:19:51;3.13;;;2.10;;
44862;SDS011;30597;49.628;10.850;2023-02-01T16:22:17;2.97;;;1.90;;
44862;SDS011;30597;49.628;10.850;2023-02-01T16:24:42;2.83;;;1.83;;
44862;SDS011;30597;49.628;10.850;2023-02-01T16:27:08;3.50;;;2.20;;
44862;SDS011;30597;49.628;10.850;2023-02-01T16:29:34;2.30;;;1.90;;
44862;SDS011;30597;49.628;10.850;2023-02-01T16:31:59;3.90;;;2.60;;
44862;SDS011;30597;49.628;10.850;2023-02-01T16:34:25;2.70;;;2.23;;
44862;SDS011;30597;49.628;10.850;2023-02-01T16:36:51;4.17;;;2.67;;
44862;SDS011;30597;49.628;10.850;2023-02-01T16:39:17;3.07;;;2.50;;
44862;SDS011;30597;49.628;10.850;2023-02-01T16:41:44;3.23;;;2.90;;
44862;SDS011;30597;49.628;10.850;2023-02-01T16:44:10;3.80;;;2.40;;
44862;SDS011;30597;49.628;10.850;2023-02-01T16:46:43;2.60;;;2.27;;
44862;SDS011;30597;49.628;10.850;2023-02-01T16:49:21;3.13;;;2.53;;
44862;SDS011;30597;49.628;10.850;2023-02-01T16:51:48;4.23;;;2.73;;
44862;SDS011;30597;49.628;10.850;2023-02-01T16:54:17;2.70;;;2.50;;
44862;SDS011;30597;49.628;10.850;2023-02-01T16:56:44;3.73;;;3.00;;
44862;SDS011;30597;49.628;10.850;2023-02-01T16:59:11;4.33;;;3.50;;
44862;SDS011;30597;49.628;10.850;2023-02-01T17:01:37;4.13;;;3.00;;
44862;SDS011;30597;49.628;10.850;2023-02-01T17:04:03;3.00;;;2.70;;
44862;SDS011;30597;49.628;10.850;2023-02-01T17:06:30;5.07;;;3.70;;
44862;SDS011;30597;49.628;10.850;2023-02-01T17:08:57;4.93;;;3.00;;
44862;SDS011;30597;49.628;10.850;2023-02-01T17:11:24;3.47;;;3.13;;
44862;SDS011;30597;49.628;10.850;2023-02-01T17:13:52;5.50;;;4.00;;
44862;SDS011;30597;49.628;10.850;2023-02-01T17:18:43;4.20;;;3.27;;